Time;durP1;ratioP1;P1;durP2;ratioP2;P2;SDS_P1;SDS_P2;PMS_P1;PMS_P2;Temp;Humidity;BMP_temperature;BMP_pressure;BME280_temperature;BME280_humidity;BME280_pressure;Samples;Min_cycle;Max_cycle;Signal;HPM_P1;HPM_P2
2021/01/18 00:00:57;;;;;;;73.60;26.08;;;;;;;-6.38;100.00;98088.25;5071141;28;20553;-77
2021/01/18 00:03:24;;;;;;;62.75;21.55;;;;;;;-6.22;100.00;98084.44;5070947;28;20048;-77
2021/01/18 00:05:52;;;;;;;61.30;21.85;;;;;;;-6.19;100.00;98086.66;5070952;28;20051;-77
2021/01/18 00:08:19;;;;;;;75.32;26.77;;;;;;;-6.23;100.00;98066.19;5070838;28;20365;-77
2021/01/18 00:10:46;;;;;;;91.55;28.63;;;;;;;-6.11;100.00;98083.84;5069308;28;20438;-77
2021/01/18 00:13:12;;;;;;;72.15;26.23;;;;;;;-6.06;100.00;98072.72;5068668;28;20053;-76
2021/01/18 00:15:40;;;;;;;57.72;22.77;;;;;;;-6.04;100.00;98070.72;5069827;28;20049;-77
2021/01/18 00:18:10;;;;;;;58.35;22.17;;;;;;;-5.93;100.00;98078.84;5069334;28;20033;-77
2021/01/18 00:20:38;;;;;;;62.33;24.08;;;;;;;-5.84;100.00;98072.34;5053332;28;20089;-77
2021/01/18 00:23:04;;;;;;;75.57;28.17;;;;;;;-5.79;100.00;98067.28;5071439;28;20047;-77
2021/01/18 00:25:31;;;;;;;69.93;25.38;;;;;;;-5.64;100.00;98063.63;5036099;28;20101;-78
2021/01/18 00:27:57;;;;;;;68.75;24.73;;;;;;;-5.64;100.00;98056.56;5068535;28;20108;-78
2021/01/18 00:30:24;;;;;;;65.97;24.65;;;;;;;-5.45;100.00;98073.41;5070305;28;20047;-77
2021/01/18 00:32:51;;;;;;;69.90;25.33;;;;;;;-5.38;100.00;98066.28;5070277;28;20088;-77
2021/01/18 00:35:20;;;;;;;68.60;26.23;;;;;;;-5.38;100.00;98061.00;5071283;28;20040;-78
2021/01/18 00:37:48;;;;;;;65.20;24.98;;;;;;;-5.31;100.00;98062.63;5072289;28;20054;-78
2021/01/18 00:40:18;;;;;;;67.65;24.33;;;;;;;-5.33;100.00;98061.22;5070688;28;20055;-78
2021/01/18 00:42:45;;;;;;;61.65;24.38;;;;;;;-5.21;100.00;98062.22;5070259;28;20048;-78
2021/01/18 00:45:14;;;;;;;59.47;23.40;;;;;;;-5.12;100.00;98063.66;5070472;28;20148;-78
2021/01/18 00:47:48;;;;;;;54.33;22.15;;;;;;;-4.95;100.00;98054.28;5070175;28;20115;-78
2021/01/18 00:50:18;;;;;;;57.10;23.40;;;;;;;-4.92;100.00;98053.03;5070819;28;20147;-78
2021/01/18 00:52:48;;;;;;;58.53;24.40;;;;;;;-4.83;100.00;98049.19;5069989;28;20488;-78
2021/01/18 00:55:18;;;;;;;57.33;25.00;;;;;;;-4.87;100.00;98046.13;5070937;28;20052;-78
2021/01/18 00:57:46;;;;;;;60.95;24.30;;;;;;;-4.79;100.00;98053.00;5070633;28;20040;-78
2021/01/18 01:00:15;;;;;;;58.15;23.92;;;;;;;-4.75;100.00;98054.25;5070330;28;20049;-78
2021/01/18 01:02:43;;;;;;;59.88;24.27;;;;;;;-4.58;100.00;98061.50;5070988;28;20045;-77
2021/01/18 01:05:12;;;;;;;60.50;24.88;;;;;;;-4.52;100.00;98058.03;5071036;28;20044;-78
2021/01/18 01:07:47;;;;;;;62.13;25.10;;;;;;;-4.43;100.00;98053.31;5071215;28;20045;-78
2021/01/18 01:10:22;;;;;;;62.20;25.48;;;;;;;-4.46;100.00;98057.19;5070562;28;20488;-78
2021/01/18 01:13:17;;;;;;;62.50;25.58;;;;;;;-4.32;100.00;98055.28;5072756;28;20045;-78
2021/01/18 01:15:44;;;;;;;;;;;;;;;-4.27;100.00;98042.25;5050313;28;20045;-78
2021/01/18 01:18:10;;;;;;;;;;;;;;;-4.24;100.00;98049.78;5071641;28;20016;-78
2021/01/18 01:20:37;;;;;;;;;;;;;;;-4.17;100.00;98039.16;5071944;28;19920;-76
2021/01/18 01:23:03;;;;;;;;;;;;;;;-4.13;100.00;98041.16;5052885;28;19920;-77
2021/01/18 01:25:29;;;;;;;;;;;;;;;-4.27;100.00;98044.91;5052602;28;19966;-77
2021/01/18 01:27:56;;;;;;;;;;;;;;;-3.95;100.00;98049.19;5052781;28;19920;-77
2021/01/18 01:30:23;;;;;;;;;;;;;;;-3.51;100.00;98058.88;5071017;28;19920;-78
2021/01/18 01:32:50;;;;;;;;;;;;;;;-3.08;100.00;98043.06;5069222;28;19920;-77
2021/01/18 01:35:19;;;;;;;;;;;;;;;-2.93;100.00;98046.16;5069950;28;19920;-77
2021/01/18 01:38:18;;;;;;;;;;;;;;;-2.76;100.00;98049.84;5074769;23;19959;-78
2021/01/18 01:59:08;;;;;;;;;;;;;;;-2.24;100.00;98040.47;4795963;29;20000;-80
2021/01/18 02:21:39;;;;;;;;;;;;;;;-2.13;100.00;98049.53;4887086;29;19933;-79
2021/01/18 02:24:57;;;;;;;;;;;;;;;-2.12;100.00;98048.50;4894020;29;20419;-79
2021/01/18 02:28:46;;;;;;;;;;;;;;;-2.15;100.00;98049.75;4929302;29;19922;-80
2021/01/18 02:32:52;;;;;;;;;;;;;;;-2.15;100.00;98048.94;4989382;28;19920;-80
2021/01/18 03:11:41;;;;;;;;;;;;;;;-1.95;100.00;98044.19;4838119;29;19929;-79
2021/01/18 03:15:42;;;;;;;;;;;;;;;;;;;;;
2021/01/18 03:22:28;;;;;;;;;;;;;;;;;;;;;
2021/01/18 03:30:14;;;;;;;;;;;;;;;-1.79;100.00;98046.22;4693737;30;20303;-80
2021/01/18 03:36:34;;;;;;;;;;;;;;;-1.73;100.00;98036.53;4821266;29;20463;-80
2021/01/18 03:44:06;;;;;;;;;;;;;;;-1.68;100.00;98037.47;4734791;30;19926;-82
2021/01/18 03:47:55;;;;;;;;;;;;;;;;;;;;;
2021/01/18 03:54:39;;;;;;;;;;;;;;;-1.43;100.00;98040.75;4876826;29;19916;-80
2021/01/18 03:58:18;;;;;;;;;;;;;;;-1.43;100.00;98043.41;4856806;29;19966;-81
2021/01/18 04:01:09;;;;;;;;;;;;;;;-1.34;100.00;98050.00;4884580;29;20015;-81
2021/01/18 04:04:41;;;;;;;;;;;;;;;-1.38;100.00;98048.03;4846628;28;20417;-81
2021/01/18 04:07:44;;;;;;;;;;;;;;;-1.40;100.00;98042.16;4941334;28;20036;-80
2021/01/18 04:13:57;;;;;;;;;;;;;;;-1.37;100.00;98044.34;4965880;28;19922;-80
2021/01/18 04:16:48;;;;;;;;;;;;;;;-1.41;100.00;98038.69;4955369;28;20369;-80
2021/01/18 04:19:39;;;;;;;;;;;;;;;-1.40;100.00;98040.31;4962259;28;20289;-80
2021/01/18 04:22:18;;;;;;;;;;;;;;;-1.42;100.00;98042.34;4997783;28;20395;-80
2021/01/18 04:25:01;;;;;;;;;;;;;;;-1.40;100.00;98040.31;4998522;28;19921;-81
2021/01/18 04:31:32;;;;;;;;;;;;;;;-1.38;100.00;98054.16;4991039;28;19927;-81
2021/01/18 04:34:43;;;;;;;;;;;;;;;-1.31;100.00;98046.88;4965378;28;19922;-82
2021/01/18 04:41:40;;;;;;;;;;;;;;;-1.27;100.00;98049.91;4910535;29;20334;-81
2021/01/18 04:44:32;;;;;;;;;;;;;;;-1.25;100.00;98053.13;4921142;28;20396;-81
2021/01/18 04:48:03;;;;;;;;;;;;;;;-1.22;100.00;98042.06;4965146;28;19922;-81
2021/01/18 04:58:59;;;;;;;;;;;;;;;;;;;;;
2021/01/18 05:02:33;;;;;;;;;;;;;;;;;;;;;
2021/01/18 05:05:53;;;;;;;;;;;;;;;-1.14;100.00;98049.69;5017062;28;19913;-81
2021/01/18 05:08:28;;;;;;;;;;;;;;;-1.11;100.00;98051.06;5032831;28;19921;-81
2021/01/18 05:11:23;;;;;;;;;;;;;;;-1.09;100.00;98052.47;5032862;28;20164;-80
2021/01/18 05:14:11;;;;;;;;;;;;;;;-1.07;100.00;98057.53;5048070;28;19924;-80
2021/01/18 05:17:12;;;;;;;;;;;;;;;-1.08;100.00;98064.69;5030221;28;19956;-80
2021/01/18 05:19:45;;;;;;;;;;;;;;;-1.08;100.00;98058.56;5034967;28;19952;-81
2021/01/18 05:26:16;;;;;;;;;;;;;;;-1.01;100.00;98061.94;5060568;28;19927;-80
2021/01/18 05:29:04;;;;;;;;;;;;;;;-0.93;100.00;98062.38;5043909;28;20375;-80
2021/01/18 05:31:57;;;;;;;;;;;;;;;-0.91;100.00;98067.47;5044509;28;19928;-80
2021/01/18 05:34:25;;;;;;;;;;;;;;;-0.87;100.00;98068.63;5059241;28;19934;-80
2021/01/18 05:36:55;;;;;;;;;;;;;;;-0.81;100.00;98067.72;5044549;28;19927;-80
2021/01/18 05:39:39;;;;;;;;;;;;;;;-0.77;100.00;98069.66;5062003;28;20031;-80
2021/01/18 05:42:27;;;;;;;;;;;;;;;-0.79;100.00;98079.72;5060415;28;19927;-80
2021/01/18 05:44:54;;;;;;;;;;;;;;;-0.74;100.00;98082.50;5044684;28;19978;-80
2021/01/18 05:47:26;;;;;;;;;;;;;;;-0.74;100.00;98077.19;5046028;28;19920;-80
2021/01/18 05:53:17;;;;;;;;;;;;;;;-0.69;100.00;98077.28;5026261;28;19921;-80
2021/01/18 05:56:30;;;;;;;;;;;;;;;-0.65;100.00;98080.31;4949172;29;20061;-80
2021/01/18 05:59:41;;;;;;;;;;;;;;;-0.63;100.00;98088.84;4947250;28;19922;-80
2021/01/18 06:06:25;;;;;;;;;;;;;;;-0.64;100.00;98093.34;4975726;28;19926;-79
2021/01/18 06:08:54;;;;;;;;;;;;;;;-0.56;100.00;98086.88;4956937;28;19933;-78
2021/01/18 06:11:24;;;;;;;;;;;;;;;-0.53;100.00;98085.59;4968789;28;19922;-79
2021/01/18 06:13:57;;;;;;;;;;;;;;;-0.49;100.00;98074.25;4975813;28;19926;-79
2021/01/18 06:16:23;;;;;;;;;;;;;;;-0.49;100.00;98086.78;4974907;28;19933;-78
2021/01/18 06:18:59;;;;;;;;;;;;;;;-0.48;100.00;98086.53;4973651;28;20369;-78
2021/01/18 06:21:41;;;;;;;;;;;;;;;-0.45;100.00;98085.25;4978423;28;19929;-79
2021/01/18 06:24:13;;;;;;;;;;;;;;;-0.40;100.00;98088.84;4979944;28;19922;-78
2021/01/18 06:26:40;;;;;;;;;;;;;;;-0.34;100.00;98101.22;5027894;28;19921;-80
2021/01/18 06:29:06;;;;;;;;;;;;;;;-0.31;100.00;98110.56;5076318;28;20390;-79
2021/01/18 06:31:45;;;;;;;;;;;;;;;-0.27;100.00;98106.38;5057928;28;19931;-79
2021/01/18 06:34:11;;;;;;;;;;;;;;;-0.22;100.00;98103.84;5058281;28;19927;-80
2021/01/18 06:36:39;;;;;;;;;;;;;;;-0.20;100.00;98102.56;5074961;28;19940;-78
2021/01/18 06:39:06;;;;;;;;;;;;;;;-0.19;100.00;98098.03;5083549;28;19924;-80
2021/01/18 06:41:34;;;;;;;;;;;;;;;-0.21;100.00;98111.59;5057847;28;19920;-79
2021/01/18 06:44:01;;;;;;;;;;;;;;;-0.12;100.00;98101.38;5074367;28;19927;-77
2021/01/18 06:46:30;;;;;;;;;;;;;;;-0.12;100.00;98110.16;5074718;28;19943;-78
2021/01/18 06:48:56;;;;;;;;;;;;;;;-0.13;100.00;98110.41;5056901;28;20305;-79
2021/01/18 06:51:24;;;;;;;;;;;;;;;-0.09;100.00;98112.38;5074634;28;19927;-79
2021/01/18 06:53:52;;;;;;;;;;;;;;;-0.04;100.00;98111.66;5056762;28;19926;-79
2021/01/18 06:56:22;;;;;;;;;;;;;;;-0.01;100.00;98104.03;5057096;28;19924;-79
2021/01/18 06:58:51;;;;;;;;;;;;;;;0.04;100.00;98110.47;5057242;28;19993;-78
2021/01/18 07:01:27;;;;;;;;;;;;;;;0.07;100.00;98110.00;5070650;28;20348;-85
2021/01/18 07:03:54;;;;;;;;;;;;;;;0.15;100.00;98122.94;5050053;28;20265;-79
2021/01/18 07:06:23;;;;;;;;;;;;;;;0.14;100.00;98111.50;5034442;28;19921;-78
2021/01/18 07:08:55;;;;;;;;;;;;;;;0.19;100.00;98118.75;5053443;28;19924;-79
2021/01/18 07:11:22;;;;;;;;;;;;;;;0.23;100.00;98118.06;5035505;28;19927;-78
2021/01/18 07:13:49;;;;;;;;;;;;;;;0.24;100.00;98117.00;5054554;28;19925;-78
2021/01/18 07:16:19;;;;;;;;;;;;;;;0.28;100.00;98120.84;5038705;28;19983;-79
2021/01/18 07:18:53;;;;;;;;;;;;;;;0.34;100.00;98124.38;5039714;28;19927;-79
2021/01/18 07:21:21;;;;;;;;;;;;;;;0.36;100.00;98116.97;5041080;28;20392;-81
2021/01/18 07:24:14;;;;;;;;;;;;;;;0.36;100.00;98132.97;5020474;28;20272;-79
2021/01/18 07:27:15;;;;;;;;;;;;;;;0.45;100.00;98139.50;5019231;28;19932;-79
2021/01/18 07:29:41;;;;;;;;;;;;;;;0.49;100.00;98140.66;5030759;28;20004;-79
2021/01/18 07:32:08;;;;;;;;;;;;;;;0.52;100.00;98143.66;5020260;28;19933;-78
2021/01/18 07:34:35;;;;;;;;;;;;;;;0.56;100.00;98152.78;5017872;28;19921;-79
2021/01/18 07:37:09;;;;;;;;;;;;;;;0.59;100.00;98151.50;5019237;28;19924;-78
2021/01/18 07:39:42;;;;;;;;;;;;;;;0.65;100.00;98147.88;5036053;28;19964;-78
2021/01/18 07:42:27;;;;;;;;;;;;;;;0.69;100.00;98154.34;5035296;28;19978;-78
2021/01/18 07:45:13;;;;;;;;;;;;;;;0.74;100.00;98151.78;5053326;28;19927;-80
2021/01/18 07:48:00;;;;;;;;;;;;;;;0.74;100.00;98158.97;5032110;28;19921;-78
2021/01/18 07:50:29;;;;;;;;;;;;;;;0.74;100.00;98161.63;5063065;22;20412;-77
2021/01/18 07:52:59;;;;;;;;;;;;;;;0.75;100.00;98163.25;5057916;28;19927;-77
2021/01/18 07:55:26;;;;;;;;;;;;;;;0.77;100.00;98164.63;5054497;28;19920;-76
2021/01/18 07:57:53;;;;;;;;;;;;;;;0.80;100.00;98166.00;5013634;28;20441;-77
2021/01/18 08:00:19;;;;;;;;;;;;;;;0.87;100.00;98175.47;5029865;28;19932;-76
2021/01/18 08:02:46;;;;;;;;;;;;;;;0.94;100.00;98162.78;5030540;28;20005;-77
2021/01/18 08:05:41;;;;;;;;;;;;;;;1.03;100.00;98157.88;5014383;28;19920;-76
2021/01/18 08:08:08;;;;;;;;;;;;;;;1.00;100.00;98166.34;5016290;28;19968;-77
2021/01/18 08:10:48;;;;;;;;;;;;;;;1.00;100.00;98161.84;5047616;28;19994;-76
2021/01/18 08:13:41;;;;;;;;;;;;;;;0.98;100.00;98169.25;5046714;28;19991;-77
2021/01/18 08:16:16;;;;;;;;;;;;;;;0.93;100.00;98182.50;5045147;28;19970;-76
2021/01/18 08:19:08;;;;;;;;;;;;;;;0.95;100.00;98171.59;5050833;28;20051;-77
2021/01/18 08:21:42;;;;;;;;;;;;;;;0.88;100.00;98169.06;5028832;28;19925;-77
2021/01/18 08:24:14;;;;;;;;;;;;;;;0.90;100.00;98169.66;5046547;28;19921;-76
2021/01/18 08:26:52;;;;;;;;;;;;;;;0.93;100.00;98176.38;5051272;28;20394;-77
2021/01/18 08:29:48;;;;;;;;;;;;;;;0.94;100.00;98172.63;5049471;28;20024;-76
2021/01/18 08:32:20;;;;;;;;;;;;;;;0.90;100.00;98176.84;5045221;28;20434;-78
2021/01/18 08:34:56;;;;;;;;;;;;;;;0.94;100.00;98189.44;5049349;28;19960;-78
2021/01/18 08:37:23;;;;;;;;;;;;;;;1.02;100.00;98183.72;5048754;28;20382;-78
2021/01/18 08:39:53;;;;;;;;;;;;;;;1.05;100.00;98180.59;5047869;28;20395;-77
2021/01/18 08:42:30;;;;;;;;;;;;;;;1.18;100.00;98179.47;5029160;28;19928;-77
2021/01/18 08:44:59;;;;;;;;;;;;;;;1.33;100.00;98173.56;5029591;28;19921;-77
2021/01/18 08:47:36;;;;;;;;;;;;;;;1.58;100.00;98172.09;5030529;28;19921;-77
2021/01/18 08:50:41;;;;;;;;;;;;;;;1.81;100.00;98179.09;5030138;28;19929;-77
2021/01/18 08:53:24;;;;;;;;;;;;;;;2.07;100.00;98178.41;4987664;28;19921;-78
2021/01/18 08:55:50;;;;;;;;;;;;;;;2.07;100.00;98170.41;5008795;28;19920;-79
2021/01/18 08:58:30;;;;;;;;;;;;;;;2.02;100.00;98173.00;5036396;28;19931;-79
2021/01/18 09:00:57;;;;;;;;;;;;;;;2.53;100.00;98170.97;5038106;28;19921;-76
2021/01/18 09:03:26;;;;;;;;;;;;;;;2.72;100.00;98161.53;5034214;28;19948;-78
2021/01/18 09:05:56;;;;;;;;;;;;;;;2.21;100.00;98152.97;5032527;28;19932;-78
2021/01/18 09:08:25;;;;;;;;;;;;;;;2.05;100.00;98161.00;5032126;28;20024;-78
2021/01/18 09:10:58;;;;;;;;;;;;;;;2.63;100.00;98163.88;5031359;28;19988;-77
2021/01/18 09:13:26;;;;;;;;;;;;;;;2.69;100.00;98156.69;5012688;28;20403;-77
2021/01/18 09:15:52;;;;;;;;;;;;;;;2.64;100.00;98153.97;5032399;28;19944;-77
2021/01/18 09:18:22;;;;;;;;;;;;;;;3.19;100.00;98165.22;5048433;28;19921;-78
2021/01/18 09:20:49;;;;;;;;;;;;;;;2.91;100.00;98168.19;5050347;28;19928;-77
2021/01/18 09:23:16;;;;;;;;;;;;;;;2.33;100.00;98169.66;4992328;28;19978;-77
2021/01/18 09:25:58;;;;;;;;;;;;;;;2.20;100.00;98158.53;5025204;28;20101;-77
2021/01/18 09:28:28;;;;;;;;;;;;;;;2.07;100.00;98178.41;5028281;28;19948;-76
2021/01/18 09:30:55;;;;;;;;;;;;;;;2.05;100.00;98163.69;5030681;28;19925;-75
2021/01/18 09:33:26;;;;;;;;;;;;;;;2.08;100.00;98164.00;5049103;28;19921;-77
2021/01/18 09:35:52;;;;;;;;;;;;;;;2.28;100.00;98184.81;5014930;28;20383;-77
2021/01/18 09:38:19;;;;;;;;;;;;;;;2.24;100.00;98179.19;5033392;28;20341;-77
2021/01/18 09:40:45;;;;;;;;;;;;;;;2.18;100.00;98174.00;5037637;28;20466;-78
2021/01/18 09:43:17;;;;;;;;;;;;;;;2.08;100.00;98179.22;5050557;28;20216;-76
2021/01/18 09:45:43;;;;;;;;;;;;;;;1.94;100.00;98169.97;5042566;28;20352;-77
2021/01/18 09:48:11;;;;;;;;;;;;;;;1.88;100.00;98177.09;5054429;28;19943;-77
2021/01/18 09:50:38;;;;;;;;;;;;;;;1.71;100.00;98179.78;5053842;28;19976;-79
2021/01/18 09:53:06;;;;;;;;;;;;;;;1.65;100.00;98172.72;5038438;28;19931;-77
2021/01/18 09:55:34;;;;;;;;;;;;;;;1.68;100.00;98182.13;5063800;22;19909;-77
2021/01/18 09:58:05;;;;;;;;;;;;;;;1.85;100.00;98177.56;5039131;28;19921;-76
2021/01/18 10:00:35;;;;;;;;;;;;;;;1.80;100.00;98172.97;5045693;28;19927;-77
2021/01/18 10:03:02;;;;;;;;;;;;;;;1.76;100.00;98176.38;5048159;28;19921;-79
2021/01/18 10:05:28;;;;;;;;;;;;;;;1.70;100.00;98180.81;5065472;28;19920;-77
2021/01/18 10:11:01;;;;;;;;;;;;;;;;;;;;;
2021/01/18 10:18:42;;;;;;;;;;;;;;;1.97;100.00;98169.44;4972821;28;19957;-80
2021/01/18 10:21:47;;;;;;;;;;;;;;;2.07;100.00;98164.25;4960001;28;20457;-80
2021/01/18 10:24:30;;;;;;;;;;;;;;;2.01;100.00;98160.72;4958039;28;19945;-82
2021/01/18 10:27:39;;;;;;;;;;;;;;;2.01;100.00;98158.06;4974481;28;19982;-80
2021/01/18 10:30:19;;;;;;;;;;;;;;;2.09;100.00;98160.28;4949890;28;19980;-80
2021/01/18 10:33:14;;;;;;;;;;;;;;;2.16;100.00;98160.91;5010060;28;19929;-81
2021/01/18 10:35:55;;;;;;;;;;;;;;;2.16;100.00;98142.22;4996690;28;19922;-81
2021/01/18 10:38:37;;;;;;;;;;;;;;;2.17;100.00;98156.38;5012333;28;19965;-80
2021/01/18 10:41:34;;;;;;;;;;;;;;;;;;;;;
2021/01/18 10:52:10;;;;;;;;;;;;;;;2.32;100.00;98149.34;4908940;29;19923;-82
2021/01/18 10:55:10;;;;;;;;;;;;;;;2.26;100.00;98147.69;5017649;28;19984;-82
2021/01/18 11:02:18;;;;;;;;;;;;;;;;;;;;;
2021/01/18 11:06:07;;;;;;;;;;;;;;;;;;;;;
2021/01/18 11:09:51;;;;;;;;;;;;;;;2.45;100.00;98151.63;4981177;28;19926;-84
2021/01/18 11:16:45;;;;;;;;;;;;;;;2.76;100.00;98138.63;4896979;29;20431;-83
2021/01/18 11:20:28;;;;;;;;;;;;;;;3.27;100.00;98135.34;4828756;29;19964;-83
2021/01/18 11:27:45;;;;;;;;;;;;;;;3.30;100.00;98116.09;5163144;23;20027;-83
2021/01/18 11:30:12;;;;;;;;;;;;;;;3.15;100.00;98121.31;5125781;27;19926;-81
2021/01/18 11:32:38;;;;;;;;;;;;;;;3.11;100.00;98131.72;5096812;27;19919;-84
2021/01/18 11:35:07;;;;;;;;;;;;;;;3.01;100.00;98125.47;5105927;28;19920;-82
2021/01/18 11:37:36;;;;;;;;;;;;;;;2.83;100.00;98118.63;5071237;28;19919;-81
2021/01/18 11:40:10;;;;;;;;;;;;;;;2.75;100.00;98120.94;5087340;23;19920;-81
2021/01/18 11:42:36;;;;;;;;;;;;;;;2.81;100.00;98131.47;5098243;28;19920;-80
2021/01/18 11:45:04;;;;;;;;;;;;;;;2.77;100.00;98126.84;5103744;28;20018;-79
2021/01/18 11:47:37;;;;;;;;;;;;;;;2.78;100.00;98131.16;5086311;28;19919;-80
2021/01/18 11:50:05;;;;;;;;;;;;;;;2.80;100.00;98131.69;5121880;28;19923;-80
2021/01/18 11:52:32;;;;;;;;;;;;;;;2.64;100.00;98116.56;5108737;28;19919;-79
2021/01/18 11:54:58;;;;;;;;;;;;;;;2.49;100.00;98115.34;5121502;28;19931;-80
2021/01/18 11:57:24;;;;;;;;;;;;;;;2.39;100.00;98117.09;5099428;28;20037;-85
2021/01/18 11:59:50;;;;;;;;;;;;;;;2.40;100.00;98108.84;5119220;28;19953;-79
2021/01/18 12:02:19;;;;;;;;;;;;;;;2.48;100.00;98116.41;5079130;28;19920;-80
2021/01/18 12:04:46;;;;;;;;;;;;;;;2.55;100.00;98108.22;5114114;28;20015;-80
2021/01/18 12:07:12;;;;;;;;;;;;;;;2.51;100.00;98102.53;5113829;28;19939;-83
2021/01/18 12:09:38;;;;;;;;;;;;;;;2.42;100.00;98117.44;5062321;28;20378;-82
2021/01/18 12:12:10;;;;;;;;;;;;;;;2.41;100.00;98107.78;5111906;28;19928;-83
2021/01/18 12:14:36;;;;;;;;;;;;;;;2.40;100.00;98108.03;5096038;28;20293;-81
2021/01/18 12:17:04;;;;;;;;;;;;;;;2.38;100.00;98110.13;5103015;28;19924;-81
2021/01/18 12:19:31;;;;;;;;;;;;;;;2.33;100.00;98113.56;5122256;28;19919;-81
2021/01/18 12:21:57;;;;;;;;;;;;;;;2.51;100.00;98115.09;5116456;28;19928;-82
2021/01/18 12:24:23;;;;;;;;;;;;;;;2.51;100.00;98110.56;5113353;28;19950;-82
2021/01/18 12:26:50;;;;;;;;;;;;;;;2.47;100.00;98104.13;5114095;28;19920;-81
2021/01/18 12:29:16;;;;;;;;;;;;;;;2.50;100.00;98113.50;5113306;28;19927;-80
2021/01/18 12:31:42;;;;;;;;;;;;;;;2.48;100.00;98105.72;5115612;28;19931;-82
2021/01/18 12:34:09;;;;;;;;;;;;;;;2.52;100.00;98106.03;5099130;28;19926;-81
2021/01/18 12:36:35;;;;;;;;;;;;;;;2.58;100.00;98110.38;5107243;28;20292;-81
2021/01/18 12:39:01;;;;;;;;;;;;;;;2.60;100.00;98102.91;5095790;28;19920;-82
2021/01/18 12:41:27;;;;;;;;;;;;;;;2.53;100.00;98108.44;5103109;28;19926;-82
2021/01/18 12:43:53;;;;;;;;;;;;;;;2.58;100.00;98097.03;5114179;28;19923;-82
2021/01/18 12:46:23;;;;;;;;;;;;;;;2.61;100.00;98117.09;5112969;28;19923;-81
2021/01/18 12:48:51;;;;;;;;;;;;;;;2.70;100.00;98104.88;5117122;28;19920;-81
2021/01/18 12:51:18;;;;;;;;;;;;;;;2.76;100.00;98095.84;5103115;28;19924;-82
2021/01/18 12:53:45;;;;;;;;;;;;;;;2.57;100.00;98094.56;5077809;28;19951;-81
2021/01/18 12:56:19;;;;;;;;;;;;;;;2.72;100.00;98092.06;5095413;28;20027;-80
2021/01/18 12:58:45;;;;;;;;;;;;;;;2.81;100.00;98091.34;5076707;28;19920;-79
2021/01/18 13:01:11;;;;;;;;;;;;;;;2.80;100.00;98087.06;5094681;28;19924;-80
2021/01/18 13:03:37;;;;;;;;;;;;;;;2.80;100.00;98083.56;5094034;28;20314;-80
2021/01/18 13:06:04;;;;;;;;;;;;;;;2.81;100.00;98087.88;5093790;28;19923;-81
2021/01/18 13:08:30;;;;;;;;;;;;;;;2.82;100.00;98084.13;5092524;28;19970;-81
2021/01/18 13:11:00;;;;;;;;;;;;;;;2.80;100.00;98084.38;5058039;28;20298;-80
2021/01/18 13:13:26;;;;;;;;;;;;;;;2.64;100.00;98077.28;5092199;28;19921;-81
2021/01/18 13:15:52;;;;;;;;;;;;;;;2.70;100.00;98086.16;5091940;28;19920;-79
2021/01/18 13:18:18;;;;;;;;;;;;;;;2.71;100.00;98079.75;5078314;28;19923;-80
2021/01/18 13:20:45;;;;;;;;;;;;;;;2.74;100.00;98082.72;5111446;28;19920;-81
2021/01/18 13:23:11;;;;;;;;;;;;;;;2.72;100.00;98073.34;5076208;28;19990;-79
2021/01/18 13:25:38;;;;;;;;;;;;;;;2.67;100.00;98083.97;5112127;28;20006;-81
2021/01/18 13:28:05;;;;;;;;;;;;;;;2.61;100.00;98074.31;5112593;28;20224;-80
2021/01/18 13:30:31;;;;;;;;;;;;;;;2.53;100.00;98085.47;5094888;28;19919;-82
2021/01/18 13:32:57;;;;;;;;;;;;;;;2.42;100.00;98072.00;5094032;28;20546;-81
2021/01/18 13:35:23;;;;;;;;;;;;;;;2.50;100.00;98082.22;5112065;28;19958;-78
2021/01/18 13:37:50;;;;;;;;;;;;;;;2.43;100.00;98086.16;5113388;28;19931;-79
2021/01/18 13:40:16;;;;;;;;;;;;;;;2.45;100.00;98078.72;5114541;28;19920;-78
2021/01/18 13:42:43;;;;;;;;;;;;;;;2.46;100.00;98086.47;5116264;28;19919;-79
2021/01/18 13:45:10;;;;;;;;;;;;;;;2.40;100.00;98082.13;5118302;28;20362;-80
2021/01/18 13:47:43;;;;;;;;;;;;;;;2.49;100.00;98077.13;5117659;28;19923;-79
2021/01/18 13:50:10;;;;;;;;;;;;;;;2.56;100.00;98082.25;5116543;28;19919;-79
2021/01/18 13:52:36;;;;;;;;;;;;;;;2.51;100.00;98075.81;5103103;28;19935;-77
2021/01/18 13:55:02;;;;;;;;;;;;;;;2.54;100.00;98071.84;5125777;28;19919;-77
2021/01/18 13:57:29;;;;;;;;;;;;;;;2.56;100.00;98074.25;5114055;28;19931;-79
2021/01/18 13:59:55;;;;;;;;;;;;;;;2.45;100.00;98078.72;5106999;28;20309;-79
2021/01/18 14:02:22;;;;;;;;;;;;;;;2.51;100.00;98073.16;5049689;28;20464;-79
2021/01/18 14:04:49;;;;;;;;;;;;;;;2.42;100.00;98063.19;5100562;28;19920;-78
2021/01/18 14:07:15;;;;;;;;;;;;;;;2.37;100.00;98063.13;5106537;28;20144;-78
2021/01/18 14:09:42;;;;;;;;;;;;;;;2.37;100.00;98061.28;5082559;28;19920;-77
2021/01/18 14:12:08;;;;;;;;;;;;;;;2.38;100.00;98060.19;5101742;28;20395;-79
2021/01/18 14:14:36;;;;;;;;;;;;;;;2.36;100.00;98059.66;5102176;28;19927;-79
2021/01/18 14:17:04;;;;;;;;;;;;;;;2.34;100.00;98060.97;5098116;28;20014;-79
2021/01/18 14:19:30;;;;;;;;;;;;;;;2.35;100.00;98051.88;5097147;28;19924;-79
2021/01/18 14:21:57;;;;;;;;;;;;;;;2.35;100.00;98058.03;5084226;28;19941;-78
2021/01/18 14:24:24;;;;;;;;;;;;;;;2.36;100.00;98058.84;5115889;28;19920;-78
2021/01/18 14:26:50;;;;;;;;;;;;;;;2.27;100.00;98052.34;5101865;28;20413;-78
2021/01/18 14:29:16;;;;;;;;;;;;;;;2.30;100.00;98047.28;5064723;28;19962;-78
2021/01/18 14:31:42;;;;;;;;;;;;;;;2.32;100.00;98049.72;5084997;28;19924;-78
2021/01/18 14:34:08;;;;;;;;;;;;;;;2.29;100.00;98059.03;5082748;28;19919;-78
2021/01/18 14:36:36;;;;;;;;;;;;;;;2.33;100.00;98051.31;5080327;28;19924;-77
2021/01/18 14:39:13;;;;;;;;;;;;;;;2.34;100.00;98051.09;5094502;28;19932;-78
2021/01/18 14:41:39;;;;;;;;;;;;;;;2.32;100.00;98042.50;5101071;28;20024;-77
2021/01/18 14:44:05;;;;;;;;;;;;;;;2.28;100.00;98045.91;5098130;28;20019;-77
2021/01/18 14:46:33;;;;;;;;;;;;;;;2.32;100.00;98047.84;5099664;28;19924;-78
2021/01/18 14:48:59;;;;;;;;;;;;;;;2.30;100.00;98051.81;5098962;28;19948;-78
2021/01/18 14:51:27;;;;;;;;;;;;;;;2.31;100.00;98034.75;5081811;28;19927;-76
2021/01/18 14:53:53;;;;;;;;;;;;;;;2.25;100.00;98043.75;5100732;28;19927;-78
2021/01/18 14:56:20;;;;;;;;;;;;;;;2.22;100.00;98039.72;5101039;28;19927;-77
2021/01/18 14:58:47;;;;;;;;;;;;;;;2.23;100.00;98038.66;5100815;28;19924;-77
2021/01/18 15:01:16;;;;;;;;;;;;;;;2.23;100.00;98044.00;5101592;28;19954;-77
2021/01/18 15:03:46;;;;;;;;;;;;;;;2.20;100.00;98039.16;5099032;28;19965;-77
2021/01/18 15:06:19;;;;;;;;;;;;;;;2.18;100.00;98049.31;5082995;28;19920;-78
2021/01/18 15:08:45;;;;;;;;;;;;;;;2.22;100.00;98044.28;5100549;28;19926;-79
2021/01/18 15:11:15;;;;;;;;;;;;;;;2.23;100.00;98032.53;5099641;28;20320;-78
2021/01/18 15:13:41;;;;;;;;;;;;;;;2.24;100.00;98034.94;5104429;28;19935;-77
2021/01/18 15:16:08;;;;;;;;;;;;;;;2.20;100.00;98031.16;5109628;28;19920;-76
2021/01/18 15:18:35;;;;;;;;;;;;;;;2.18;100.00;98027.13;5105383;28;19924;-76
2021/01/18 15:21:01;;;;;;;;;;;;;;;2.15;100.00;98024.94;5104296;28;20290;-76
2021/01/18 15:23:27;;;;;;;;;;;;;;;2.16;100.00;98027.38;5068381;28;19920;-77
2021/01/18 15:25:54;;;;;;;;;;;;;;;2.14;100.00;98026.03;5100838;28;19924;-76
2021/01/18 15:28:21;;;;;;;;;;;;;;;2.09;100.00;98021.41;5101437;28;20382;-77
2021/01/18 15:30:51;;;;;;;;;;;;;;;2.11;100.00;98018.50;5099407;28;19920;-77
2021/01/18 15:33:18;;;;;;;;;;;;;;;2.08;100.00;98027.03;5090818;28;19920;-76
2021/01/18 15:35:45;;;;;;;;;;;;;;;2.07;100.00;98023.53;5090592;28;19924;-76
2021/01/18 15:38:12;;;;;;;;;;;;;;;2.06;100.00;98031.81;5091379;28;19920;-77
2021/01/18 15:40:41;;;;;;;;;;;;;;;2.09;100.00;98024.09;5090492;28;19923;-78
2021/01/18 15:43:07;;;;;;;;;;;;;;;2.06;100.00;98027.28;5091523;28;19924;-76
2021/01/18 15:45:34;;;;;;;;;;;;;;;2.07;100.00;98028.88;5091275;28;19924;-78
2021/01/18 15:48:01;;;;;;;;;;;;;;;2.07;100.00;98023.53;5090412;28;19927;-74
2021/01/18 15:50:27;;;;;;;;;;;;;;;2.06;100.00;98021.94;5090553;28;19920;-75
2021/01/18 15:52:53;;;;;;;;;;;;;;;2.05;100.00;98028.31;5095464;28;19920;-74
2021/01/18 15:55:19;;;;;;;;;;;;;;;2.00;100.00;98033.59;5091826;28;19931;-76
2021/01/18 15:57:45;;;;;;;;;;;;;;;1.98;100.00;98035.72;5089436;28;19920;-74
2021/01/18 16:00:12;;;;;;;;;;;;;;;1.94;100.00;98036.50;5089669;28;20397;-75